Time;durP1;ratioP1;P1;durP2;ratioP2;P2;SDS_P1;SDS_P2;PMS_P1;PMS_P2;Temp;Humidity;BMP_temperature;BMP_pressure;BME280_temperature;BME280_humidity;BME280_pressure;Samples;Min_cycle;Max_cycle;Signal;HPM_P1;HPM_P2
2021/08/14 16:13:14;;;;;;;26.88;8.32;;;;;;;;;;5110813;27;20385;-79
2021/08/14 16:15:40;;;;;;;30.58;7.85;;;;;;;;;;5111418;28;20028;-79
2021/08/14 16:18:07;;;;;;;17.25;7.07;;;;;;;;;;5110452;28;20020;-81
2021/08/14 16:20:33;;;;;;;15.68;6.85;;;;;;;;;;5111863;28;20024;-77
2021/08/14 16:23:01;;;;;;;15.68;6.95;;;;;;;;;;5110373;28;20051;-81
2021/08/14 16:25:28;;;;;;;19.30;7.45;;;;;;;;;;5110229;28;20027;-81
2021/08/14 16:27:54;;;;;;;15.80;7.20;;;;;;;;;;5111605;28;20023;-83
2021/08/14 16:30:21;;;;;;;16.83;6.88;;;;;;;;;;5110405;28;20028;-81
2021/08/14 16:32:47;;;;;;;12.15;6.25;;;768.30;1254.40;;;;;;5110213;28;20027;-79
2021/08/14 16:35:12;;;;;;;15.90;6.70;;;768.20;1254.40;;;;;;5109896;28;20119;-81
2021/08/14 16:37:38;;;;;;;19.95;7.20;;;768.00;1280.00;;;;;;5109909;28;20100;-79
2021/08/14 16:40:05;;;;;;;29.20;6.85;;;768.00;1280.00;;;;;;5109735;28;20066;-77
2021/08/14 16:42:32;;;;;;;34.72;9.13;;;768.00;1305.60;;;;;;5109978;28;20491;-81
2021/08/14 16:44:58;;;;;;;28.83;7.85;;;768.00;1305.60;;;;;;5110986;28;20473;-80
2021/08/14 16:47:24;;;;;;;50.50;8.93;;;768.00;1305.60;;;;;;5109235;28;20028;-80
2021/08/14 16:49:50;;;;;;;28.70;7.72;;;768.00;1305.60;;;;;;5109128;28;20028;-81
2021/08/14 16:52:16;;;;;;;30.00;7.38;;;768.00;1305.60;;;;;;5109656;28;20040;-82
2021/08/14 16:54:42;;;;;;;61.72;9.18;;;743.30;1305.60;;;;;;5109642;28;20468;-79
2021/08/14 16:57:08;;;;;;;37.13;7.75;;;768.10;1280.00;;;;;;5109606;28;20085;-83
2021/08/14 16:59:34;;;;;;;24.90;7.15;;;768.20;1254.40;;;;;;5109344;28;20028;-77
2021/08/14 17:02:01;;;;;;;21.00;8.20;;;768.40;1203.20;;;;;;5108774;28;20122;-78
2021/08/14 17:04:27;;;;;;;24.02;7.18;;;768.50;1228.80;;;;;;5108797;28;20103;-78
2021/08/14 17:06:53;;;;;;;27.40;7.15;;;768.50;1254.40;;;;;;5106132;28;20028;-77
2021/08/14 17:09:19;;;;;;;34.72;8.13;;;768.30;1280.00;;;;;;5108805;28;20019;-77
2021/08/14 17:11:45;;;;;;;45.05;9.07;;;768.20;1280.00;;;;;;5108502;28;20061;-76
2021/08/14 17:14:11;;;;;;;32.42;8.48;;;768.20;1280.00;;;;;;5108826;28;20066;-80
2021/08/14 17:16:37;;;;;;;29.67;8.43;;;768.20;1305.60;;;;;;5110008;28;20019;-78
2021/08/14 17:19:03;;;;;;;37.20;8.75;;;768.10;1305.60;;;;;;5108858;28;20028;-79
2021/08/14 17:21:29;;;;;;;30.02;8.35;;;768.10;1305.60;;;;;;5108064;28;20475;-77
2021/08/14 17:23:56;;;;;;;26.88;8.35;;;768.00;1305.60;;;;;;5098078;28;20119;-78
2021/08/14 17:26:23;;;;;;;22.15;7.00;;;768.00;1305.60;;;;;;5094536;28;20515;-79
2021/08/14 17:28:49;;;;;;;24.00;7.45;;;743.30;1331.20;;;;;;5096235;28;20036;-77
2021/08/14 17:31:15;;;;;;;17.75;7.38;;;743.20;1331.20;;;;;;5094575;28;20479;-78
2021/08/14 17:33:41;;;;;;;15.65;7.00;;;743.30;1331.20;;;;;;5096046;28;20021;-78
2021/08/14 17:36:07;;;;;;;26.23;8.02;;;743.20;1331.20;;;;;;5094710;28;20020;-78
2021/08/14 17:38:33;;;;;;;18.40;7.30;;;743.20;1331.20;;;;;;5095329;28;20084;-79
2021/08/14 17:40:59;;;;;;;14.35;7.53;;;743.20;1331.20;;;;;;5093600;28;20020;-79
2021/08/14 17:43:25;;;;;;;19.00;7.22;;;743.20;1331.20;;;;;;5093893;28;20126;-80
2021/08/14 17:45:51;;;;;;;14.88;7.38;;;743.20;1331.20;;;;;;5094798;28;20023;-79
2021/08/14 17:48:17;;;;;;;19.60;6.55;;;743.10;1331.20;;;;;;5096187;28;20516;-79
2021/08/14 17:50:43;;;;;;;13.43;7.07;;;743.10;1356.80;;;;;;5095013;28;20020;-78
2021/08/14 17:53:10;;;;;;;16.00;7.10;;;743.10;1356.80;;;;;;5096219;28;20055;-79
2021/08/14 17:55:36;;;;;;;16.17;6.80;;;743.10;1356.80;;;;;;5095944;28;20077;-78
2021/08/14 17:58:02;;;;;;;15.13;6.95;;;743.10;1356.80;;;;;;5094616;28;20024;-79
2021/08/14 18:00:28;;;;;;;13.90;6.63;;;743.10;1356.80;;;;;;5094966;28;20024;-80
2021/08/14 18:02:54;;;;;;;13.85;7.05;;;743.10;1356.80;;;;;;5094696;28;20024;-78
2021/08/14 18:05:20;;;;;;;10.80;6.68;;;743.10;1356.80;;;;;;5094422;28;20095;-78
2021/08/14 18:07:46;;;;;;;12.68;7.13;;;743.10;1331.20;;;;;;5096061;28;20020;-78
2021/08/14 18:10:13;;;;;;;11.57;7.07;;;743.10;1356.80;;;;;;5096084;28;20020;-78
2021/08/14 18:12:40;;;;;;;14.23;6.97;;;743.10;1356.80;;;;;;5094298;28;20044;-78
2021/08/14 18:15:07;;;;;;;13.27;6.30;;;743.10;1356.80;;;;;;5094694;28;20077;-79
2021/08/14 18:17:36;;;;;;;21.25;7.10;;;743.10;1356.80;;;;;;5095459;28;20537;-78
2021/08/14 18:20:07;;;;;;;14.55;7.25;;;743.10;1356.80;;;;;;5096036;28;20500;-79
2021/08/14 18:22:36;;;;;;;12.88;6.72;;;743.10;1356.80;;;;;;5095514;28;20146;-79
2021/08/14 18:25:03;;;;;;;15.55;6.82;;;743.10;1356.80;;;;;;5095878;28;20024;-80
2021/08/14 18:27:29;;;;;;;15.98;6.75;;;743.10;1356.80;;;;;;5094458;28;20020;-78
2021/08/14 18:29:55;;;;;;;27.38;8.02;;;743.10;1356.80;;;;;;5094084;28;20504;-78
2021/08/14 18:32:21;;;;;;;31.25;8.10;;;743.20;1356.80;;;;;;5095176;28;20125;-79
2021/08/14 18:34:47;;;;;;;24.23;7.40;;;743.20;1331.20;;;;;;5093498;28;20024;-83
2021/08/14 18:37:13;;;;;;;36.22;8.70;;;743.20;1331.20;;;;;;5094201;28;20024;-80
2021/08/14 18:39:41;;;;;;;26.42;8.80;;;743.30;1305.60;;;;;;5094050;28;20425;-80
2021/08/14 18:42:08;;;;;;;21.80;8.27;;;743.30;1331.20;;;;;;5095485;28;20015;-81
2021/08/14 18:44:34;;;;;;;41.55;9.38;;;743.30;1331.20;;;;;;5095293;28;20020;-78
2021/08/14 18:47:00;;;;;;;80.22;23.33;;;743.30;1331.20;;;;;;5093939;28;20046;-79
2021/08/14 18:49:26;;;;;;;28.98;10.18;;;743.30;1331.20;;;;;;5093751;28;20024;-78
2021/08/14 18:51:52;;;;;;;15.48;8.68;;;743.30;1331.20;;;;;;5093692;28;20182;-78
2021/08/14 18:54:18;;;;;;;25.20;11.65;;;743.30;1331.20;;;;;;5094172;28;20020;-78
2021/08/14 18:56:44;;;;;;;38.28;17.45;;;743.30;1331.20;;;;;;5092086;28;20118;-75
2021/08/14 18:59:09;;;;;;;25.95;11.57;;;743.30;1331.20;;;;;;5093354;28;20477;-78
2021/08/14 19:01:35;;;;;;;19.08;9.43;;;743.30;1331.20;;;;;;5092106;28;20109;-79
2021/08/14 19:04:01;;;;;;;16.70;8.95;;;743.30;1331.20;;;;;;5093444;28;20031;-75
2021/08/14 19:06:27;;;;;;;22.52;11.07;;;743.30;1331.20;;;;;;5094587;28;20396;-79
2021/08/14 19:08:53;;;;;;;16.90;9.43;;;743.30;1356.80;;;;;;5094827;28;20020;-79
2021/08/14 19:11:19;;;;;;;20.02;9.40;;;743.30;1356.80;;;;;;5094333;28;20051;-78
2021/08/14 19:13:45;;;;;;;48.17;26.90;;;743.30;1356.80;;;;;;5093195;28;20046;-80
2021/08/14 19:16:11;;;;;;;48.08;26.05;;;743.20;1356.80;;;;;;5093503;28;20027;-80
2021/08/14 19:18:37;;;;;;;24.20;13.35;;;743.20;1356.80;;;;;;5093412;28;20073;-80
2021/08/14 19:21:02;;;;;;;24.38;12.70;;;743.20;1382.40;;;;;;5094647;28;20426;-79
2021/08/14 19:23:29;;;;;;;34.78;14.60;;;743.20;1382.40;;;;;;5093164;28;20024;-79
2021/08/14 19:25:55;;;;;;;22.52;11.43;;;743.10;1382.40;;;;;;5094336;28;20058;-79
2021/08/14 19:28:21;;;;;;;21.98;11.90;;;743.10;1382.40;;;;;;5094435;28;20016;-79
2021/08/14 19:30:47;;;;;;;26.55;12.23;;;743.10;1382.40;;;;;;5094487;28;20436;-78
2021/08/14 19:33:13;;;;;;;23.50;11.38;;;743.10;1382.40;;;;;;5093123;28;20123;-79
2021/08/14 19:35:40;;;;;;;27.77;12.05;;;743.10;1382.40;;;;;;5093114;28;20016;-80
2021/08/14 19:38:07;;;;;;;22.73;11.88;;;743.10;1382.40;;;;;;5092690;28;20035;-80
2021/08/14 19:40:33;;;;;;;21.38;11.20;;;743.10;1382.40;;;;;;5092973;28;20048;-79
2021/08/14 19:42:59;;;;;;;16.42;9.75;;;743.10;1408.00;;;;;;5094242;28;20032;-79
2021/08/14 19:45:25;;;;;;;22.77;10.43;;;743.00;1408.00;;;;;;5092957;28;20020;-79
2021/08/14 19:47:51;;;;;;;17.30;9.02;;;743.00;1382.40;;;;;;5092367;28;20052;-77
2021/08/14 19:50:17;;;;;;;15.65;9.13;;;742.90;1382.40;;;;;;5091546;28;20130;-78
2021/08/14 19:52:43;;;;;;;26.50;9.10;;;742.90;1382.40;;;;;;5091374;28;20032;-81
2021/08/14 19:55:09;;;;;;;19.88;9.30;;;742.90;1382.40;;;;;;5092562;28;20429;-79
2021/08/14 19:57:36;;;;;;;18.55;9.50;;;742.90;1408.00;;;;;;5091273;28;20123;-79
2021/08/14 20:00:03;;;;;;;14.32;8.55;;;742.80;1408.00;;;;;;5091412;28;20049;-79
2021/08/14 20:02:30;;;;;;;16.63;8.52;;;742.90;1382.40;;;;;;5091420;28;20024;-79
2021/08/14 20:04:56;;;;;;;14.75;9.05;;;742.90;1382.40;;;;;;5092589;28;20419;-78
2021/08/14 20:07:22;;;;;;;19.45;8.98;;;742.90;1382.40;;;;;;5091720;28;20024;-76
2021/08/14 20:09:48;;;;;;;17.40;9.07;;;742.90;1408.00;;;;;;5091194;28;20016;-80
2021/08/14 20:12:14;;;;;;;10.80;8.15;;;742.80;1408.00;;;;;;5092270;28;20089;-82
2021/08/14 20:14:40;;;;;;;15.40;8.52;;;742.70;1408.00;;;;;;5092734;28;20065;-81
2021/08/14 20:17:06;;;;;;;17.55;9.73;;;742.70;1408.00;;;;;;5091286;28;20032;-79
2021/08/14 20:19:31;;;;;;;23.30;9.48;;;742.70;1408.00;;;;;;5092844;28;20016;-85
2021/08/14 20:21:57;;;;;;;17.90;9.25;;;742.60;1408.00;;;;;;5089583;28;20468;-83
2021/08/14 20:24:23;;;;;;;18.40;9.35;;;742.70;1408.00;;;;;;5091634;28;20016;-83
2021/08/14 20:26:49;;;;;;;12.85;9.57;;;742.60;1408.00;;;;;;5091352;28;20491;-82
2021/08/14 20:29:17;;;;;;;14.35;9.50;;;742.60;1408.00;;;;;;5092036;28;20032;-83
2021/08/14 20:31:43;;;;;;;12.32;8.35;;;742.60;1408.00;;;;;;5091642;28;20492;-78
2021/08/14 20:34:09;;;;;;;12.48;8.43;;;742.60;1408.00;;;;;;5091165;28;20439;-79
2021/08/14 20:36:35;;;;;;;12.02;7.93;;;742.60;1408.00;;;;;;5091744;28;20047;-77
2021/08/14 20:39:01;;;;;;;9.27;7.85;;;742.60;1408.00;;;;;;5092107;28;20016;-79
2021/08/14 20:41:26;;;;;;;15.30;8.65;;;742.60;1382.40;;;;;;5092288;28;20021;-79
2021/08/14 20:43:53;;;;;;;16.75;7.43;;;742.50;1408.00;;;;;;5093370;28;20016;-77
2021/08/14 20:46:19;;;;;;;11.40;7.93;;;742.50;1382.40;;;;;;5091939;28;20031;-76
2021/08/14 20:48:44;;;;;;;12.80;8.23;;;742.50;1382.40;;;;;;5093656;28;20020;-81
2021/08/14 20:51:11;;;;;;;15.80;8.30;;;742.50;1382.40;;;;;;5092274;28;20043;-78
2021/08/14 20:53:37;;;;;;;108.47;33.85;;;742.50;1382.40;;;;;;5092446;28;20032;-82
2021/08/14 20:56:03;;;;;;;19.08;10.32;;;742.50;1408.00;;;;;;5091318;28;20032;-82
2021/08/14 20:58:29;;;;;;;15.18;8.73;;;742.50;1408.00;;;;;;5094045;28;20020;-81
2021/08/14 21:00:56;;;;;;;21.88;8.32;;;742.50;1382.40;;;;;;5095257;28;20023;-80
2021/08/14 21:03:22;;;;;;;16.80;8.50;;;742.50;1382.40;;;;;;5096575;28;20495;-82
2021/08/14 21:05:48;;;;;;;16.52;8.40;;;742.50;1382.40;;;;;;5094943;28;20036;-81
2021/08/14 21:08:13;;;;;;;11.02;7.78;;;742.50;1382.40;;;;;;5095815;28;20023;-80
2021/08/14 21:10:39;;;;;;;15.18;7.43;;;742.50;1382.40;;;;;;5092179;28;20020;-81
2021/08/14 21:13:05;;;;;;;11.98;8.00;;;742.50;1382.40;;;;;;5094953;28;20657;-81
2021/08/14 21:15:32;;;;;;;16.75;8.35;;;742.50;1382.40;;;;;;5095466;28;20028;-82
2021/08/14 21:17:58;;;;;;;14.13;8.55;;;742.50;1382.40;;;;;;5097232;28;20472;-82
2021/08/14 21:20:24;;;;;;;14.45;7.90;;;742.40;1382.40;;;;;;5096720;28;20107;-82
2021/08/14 21:22:50;;;;;;;22.30;11.27;;;742.40;1382.40;;;;;;5095370;28;20476;-82
2021/08/14 21:25:16;;;;;;;17.48;8.07;;;742.40;1382.40;;;;;;5094363;28;20036;-82
2021/08/14 21:27:42;;;;;;;29.92;8.48;;;742.40;1382.40;;;;;;5096323;28;20038;-81
2021/08/14 21:30:09;;;;;;;14.95;8.30;;;742.40;1408.00;;;;;;5096887;28;20377;-80
2021/08/14 21:32:35;;;;;;;11.40;7.68;;;717.60;1382.40;;;;;;5076371;28;20431;-82
2021/08/14 21:35:01;;;;;;;14.70;8.65;;;717.60;1382.40;;;;;;5075397;28;20017;-81
2021/08/14 21:37:27;;;;;;;12.77;8.00;;;717.60;1382.40;;;;;;5085674;28;20028;-79
2021/08/14 21:39:53;;;;;;;14.50;8.20;;;717.60;1382.40;;;;;;5095141;28;20020;-81
2021/08/14 21:42:19;;;;;;;11.80;7.72;;;717.50;1382.40;;;;;;5094920;28;20062;-82
2021/08/14 21:44:45;;;;;;;12.90;8.23;;;717.50;1382.40;;;;;;5096623;28;20070;-78
2021/08/14 21:47:10;;;;;;;11.52;7.93;;;717.50;1408.00;;;;;;5095551;28;20035;-83
2021/08/14 21:49:36;;;;;;;14.07;8.10;;;717.50;1408.00;;;;;;5095372;28;20035;-82
2021/08/14 21:52:02;;;;;;;9.15;7.57;;;717.50;1408.00;;;;;;5096293;28;20028;-77
2021/08/14 21:54:28;;;;;;;11.85;8.07;;;717.40;1408.00;;;;;;5095991;28;20070;-79
2021/08/14 21:56:54;;;;;;;14.48;7.93;;;717.40;1408.00;;;;;;5094871;28;20369;-80
2021/08/14 21:59:21;;;;;;;10.25;7.95;;;717.40;1408.00;;;;;;5075987;28;20024;-80
2021/08/14 22:01:46;;;;;;;14.85;8.05;;;717.30;1408.00;;;;;;5074334;28;20025;-79
2021/08/14 22:04:12;;;;;;;15.13;7.80;;;717.30;1408.00;;;;;;5074644;28;20079;-83
2021/08/14 22:06:40;;;;;;;12.15;7.85;;;717.30;1408.00;;;;;;5075980;28;20091;-81
2021/08/14 22:09:06;;;;;;;10.90;8.15;;;717.10;1408.00;;;;;;5075603;28;20493;-79
2021/08/14 22:11:34;;;;;;;13.15;8.00;;;717.30;1408.00;;;;;;5073720;28;20053;-79
2021/08/14 22:14:02;;;;;;;15.15;8.25;;;717.30;1433.60;;;;;;5081518;28;20028;-82
2021/08/14 22:16:28;;;;;;;19.55;7.85;;;717.30;1408.00;;;;;;5094456;28;20468;-81
2021/08/14 22:18:54;;;;;;;13.75;7.97;;;717.20;1433.60;;;;;;5095858;28;20128;-81
2021/08/14 22:21:20;;;;;;;9.55;7.75;;;717.20;1433.60;;;;;;5096111;28;20477;-82
2021/08/14 22:23:46;;;;;;;12.23;7.60;;;717.20;1408.00;;;;;;5094310;28;20080;-81
2021/08/14 22:26:12;;;;;;;12.30;8.13;;;717.20;1408.00;;;;;;5095565;28;20499;-80
2021/08/14 22:28:37;;;;;;;9.77;7.95;;;717.20;1408.00;;;;;;5095484;28;20048;-76
2021/08/14 22:31:04;;;;;;;16.70;8.00;;;717.20;1408.00;;;;;;5095308;28;20546;-81
2021/08/14 22:33:31;;;;;;;12.88;8.10;;;717.20;1408.00;;;;;;5094167;28;20036;-76
2021/08/14 22:35:57;;;;;;;8.77;7.13;;;717.00;1408.00;;;;;;5094065;28;20020;-76
2021/08/14 22:38:23;;;;;;;15.93;8.38;;;717.20;1408.00;;;;;;5092212;28;20028;-76
2021/08/14 22:40:50;;;;;;;10.13;7.93;;;717.20;1408.00;;;;;;5093068;28;20074;-76
2021/08/14 22:43:18;;;;;;;13.40;8.52;;;717.00;1408.00;;;;;;5091832;28;20069;-77
2021/08/14 22:45:45;;;;;;;15.18;9.50;;;717.00;1408.00;;;;;;5091943;28;20116;-77
2021/08/14 22:48:11;;;;;;;13.32;9.00;;;717.00;1408.00;;;;;;5092483;28;20115;-77
2021/08/14 22:50:40;;;;;;;13.73;9.20;;;717.00;1433.60;;;;;;5093314;28;20099;-77
2021/08/14 22:53:07;;;;;;;11.00;8.68;;;717.00;1433.60;;;;;;5092261;28;20123;-77
2021/08/14 22:55:34;;;;;;;11.15;8.82;;;717.00;1433.60;;;;;;5093490;28;20055;-77
2021/08/14 22:58:00;;;;;;;13.45;9.52;;;716.90;1433.60;;;;;;5092946;28;20032;-76
2021/08/14 23:00:28;;;;;;;12.10;8.18;;;716.90;1459.20;;;;;;5094704;28;20091;-77
2021/08/14 23:02:55;;;;;;;17.38;10.00;;;716.80;1459.20;;;;;;5093474;28;20459;-77
2021/08/14 23:05:22;;;;;;;11.85;9.10;;;716.90;1459.20;;;;;;5094633;28;20095;-77
2021/08/14 23:07:53;;;;;;;12.38;9.82;;;716.80;1459.20;;;;;;5094558;28;20093;-77
2021/08/14 23:10:29;;;;;;;14.35;10.05;;;716.80;1459.20;;;;;;5093204;28;20047;-77
2021/08/14 23:12:57;;;;;;;14.80;9.38;;;716.80;1484.80;;;;;;5094363;28;20052;-77
2021/08/14 23:15:24;;;;;;;15.82;9.52;;;716.80;1484.80;;;;;;5094571;28;20044;-76
2021/08/14 23:17:50;;;;;;;17.13;10.10;;;692.10;1459.20;;;;;;5093242;28;20075;-76
2021/08/14 23:20:17;;;;;;;12.90;9.65;;;692.10;1459.20;;;;;;5093092;28;20062;-77
2021/08/14 23:22:43;;;;;;;11.82;9.25;;;692.10;1459.20;;;;;;5093932;28;20023;-77
2021/08/14 23:25:11;;;;;;;14.27;9.38;;;692.10;1433.60;;;;;;5092977;28;20077;-77
2021/08/14 23:27:53;;;;;;;12.30;8.98;;;692.10;1433.60;;;;;;5094177;28;20020;-78
2021/08/14 23:30:20;;;;;;;12.50;9.43;;;692.00;1433.60;;;;;;5094153;28;20106;-78
2021/08/14 23:32:46;;;;;;;15.85;9.90;;;692.00;1433.60;;;;;;5092934;28;20511;-78
2021/08/14 23:35:12;;;;;;;12.00;10.20;;;692.00;1459.20;;;;;;5094180;28;20091;-78
2021/08/14 23:37:38;;;;;;;15.55;9.60;;;692.00;1459.20;;;;;;5092860;28;20115;-78
2021/08/14 23:40:05;;;;;;;12.55;9.38;;;691.90;1459.20;;;;;;5092829;28;20016;-78
2021/08/14 23:42:31;;;;;;;11.70;9.82;;;691.90;1484.80;;;;;;5094013;28;20024;-78
2021/08/14 23:44:56;;;;;;;16.00;10.73;;;691.90;1459.20;;;;;;5094069;28;20427;-78
2021/08/14 23:47:22;;;;;;;18.67;8.90;;;691.90;1459.20;;;;;;5093939;28;20039;-78
2021/08/14 23:49:48;;;;;;;13.18;8.75;;;691.90;1459.20;;;;;;5093977;28;20016;-79
2021/08/14 23:52:14;;;;;;;14.70;10.00;;;691.90;1459.20;;;;;;5093835;28;20531;-78
2021/08/14 23:54:40;;;;;;;18.45;10.02;;;691.90;1459.20;;;;;;5092470;28;20377;-78
2021/08/14 23:57:06;;;;;;;18.48;9.43;;;691.80;1484.80;;;;;;5092591;28;20063;-78
2021/08/14 23:59:31;;;;;;;11.30;9.27;;;691.80;1459.20;;;;;;5093738;28;20027;-79
